sensor_id;sensor_type;location;lat;lon;timestamp;temperature;humidity
13970;DHT22;7057;49.984;8.404;2023-07-13T00:00:22;19.50;99.90
13970;DHT22;7057;49.984;8.404;2023-07-13T00:02:49;19.50;99.90
13970;DHT22;7057;49.984;8.404;2023-07-13T00:05:19;19.60;99.90
13970;DHT22;7057;49.984;8.404;2023-07-13T00:07:46;19.60;99.90
13970;DHT22;7057;49.984;8.404;2023-07-13T00:10:14;19.60;99.90
13970;DHT22;7057;49.984;8.404;2023-07-13T00:12:41;19.60;99.90
13970;DHT22;7057;49.984;8.404;2023-07-13T00:15:12;19.60;99.90
13970;DHT22;7057;49.984;8.404;2023-07-13T00:17:43;19.60;99.90
13970;DHT22;7057;49.984;8.404;2023-07-13T00:20:11;19.70;99.90
13970;DHT22;7057;49.984;8.404;2023-07-13T00:22:39;19.70;99.90
13970;DHT22;7057;49.984;8.404;2023-07-13T00:25:07;19.80;99.90
13970;DHT22;7057;49.984;8.404;2023-07-13T00:27:35;19.80;99.90
13970;DHT22;7057;49.984;8.404;2023-07-13T00:30:03;19.80;99.90
13970;DHT22;7057;49.984;8.404;2023-07-13T00:32:31;19.80;99.90
13970;DHT22;7057;49.984;8.404;2023-07-13T00:35:00;19.80;99.90
13970;DHT22;7057;49.984;8.404;2023-07-13T00:37:27;19.80;99.90
13970;DHT22;7057;49.984;8.404;2023-07-13T00:39:54;19.80;99.90
13970;DHT22;7057;49.984;8.404;2023-07-13T00:42:21;19.80;99.90
13970;DHT22;7057;49.984;8.404;2023-07-13T00:45:02;19.80;99.90
13970;DHT22;7057;49.984;8.404;2023-07-13T00:47:30;19.80;99.90
13970;DHT22;7057;49.984;8.404;2023-07-13T00:49:57;19.80;99.90
13970;DHT22;7057;49.984;8.404;2023-07-13T00:52:26;19.80;99.90
13970;DHT22;7057;49.984;8.404;2023-07-13T00:54:54;19.80;99.90
13970;DHT22;7057;49.984;8.404;2023-07-13T00:57:22;19.80;99.90
13970;DHT22;7057;49.984;8.404;2023-07-13T00:59:55;19.80;99.90
13970;DHT22;7057;49.984;8.404;2023-07-13T01:02:22;19.80;99.90
13970;DHT22;7057;49.984;8.404;2023-07-13T01:04:50;19.80;99.90
13970;DHT22;7057;49.984;8.404;2023-07-13T01:07:18;19.80;99.90
13970;DHT22;7057;49.984;8.404;2023-07-13T01:09:47;19.70;99.90
13970;DHT22;7057;49.984;8.404;2023-07-13T01:12:14;19.70;99.90
13970;DHT22;7057;49.984;8.404;2023-07-13T01:14:41;19.70;99.90
13970;DHT22;7057;49.984;8.404;2023-07-13T01:17:10;19.70;99.90
13970;DHT22;7057;49.984;8.404;2023-07-13T01:19:39;19.70;99.90
13970;DHT22;7057;49.984;8.404;2023-07-13T01:22:10;19.70;99.90
13970;DHT22;7057;49.984;8.404;2023-07-13T01:24:39;19.70;99.90
13970;DHT22;7057;49.984;8.404;2023-07-13T01:27:07;19.70;99.90
13970;DHT22;7057;49.984;8.404;2023-07-13T01:29:36;19.70;99.90
13970;DHT22;7057;49.984;8.404;2023-07-13T01:32:09;19.70;99.90
13970;DHT22;7057;49.984;8.404;2023-07-13T01:34:36;19.70;99.90
13970;DHT22;7057;49.984;8.404;2023-07-13T01:37:04;19.70;99.90
13970;DHT22;7057;49.984;8.404;2023-07-13T01:39:33;19.60;99.90
13970;DHT22;7057;49.984;8.404;2023-07-13T01:42:00;19.60;99.90
13970;DHT22;7057;49.984;8.404;2023-07-13T01:44:28;19.60;99.90
13970;DHT22;7057;49.984;8.404;2023-07-13T01:46:55;19.70;99.90
13970;DHT22;7057;49.984;8.404;2023-07-13T01:49:22;19.70;99.90
13970;DHT22;7057;49.984;8.404;2023-07-13T01:51:49;19.60;99.90
13970;DHT22;7057;49.984;8.404;2023-07-13T01:54:16;19.60;99.90
13970;DHT22;7057;49.984;8.404;2023-07-13T01:56:45;19.60;99.90
13970;DHT22;7057;49.984;8.404;2023-07-13T01:59:12;19.50;99.90
13970;DHT22;7057;49.984;8.404;2023-07-13T02:01:39;19.40;99.90
13970;DHT22;7057;49.984;8.404;2023-07-13T02:04:06;19.30;99.90
13970;DHT22;7057;49.984;8.404;2023-07-13T02:06:34;19.40;99.90
13970;DHT22;7057;49.984;8.404;2023-07-13T02:09:01;19.40;99.90
13970;DHT22;7057;49.984;8.404;2023-07-13T02:11:28;19.20;99.90
13970;DHT22;7057;49.984;8.404;2023-07-13T02:14:01;19.00;99.90
13970;DHT22;7057;49.984;8.404;2023-07-13T02:16:28;19.00;99.90
13970;DHT22;7057;49.984;8.404;2023-07-13T02:18:56;18.90;99.90
13970;DHT22;7057;49.984;8.404;2023-07-13T02:21:23;18.80;99.90
13970;DHT22;7057;49.984;8.404;2023-07-13T02:23:51;18.80;99.90
13970;DHT22;7057;49.984;8.404;2023-07-13T02:26:18;18.60;99.90
13970;DHT22;7057;49.984;8.404;2023-07-13T02:28:46;18.50;99.90
13970;DHT22;7057;49.984;8.404;2023-07-13T02:31:16;18.40;99.90
13970;DHT22;7057;49.984;8.404;2023-07-13T02:33:43;18.20;99.90
13970;DHT22;7057;49.984;8.404;2023-07-13T02:36:11;18.10;99.90
13970;DHT22;7057;49.984;8.404;2023-07-13T02:38:38;18.10;99.90
13970;DHT22;7057;49.984;8.404;2023-07-13T02:41:06;18.00;99.90
13970;DHT22;7057;49.984;8.404;2023-07-13T02:43:34;17.90;99.90
13970;DHT22;7057;49.984;8.404;2023-07-13T02:46:02;17.80;99.90
13970;DHT22;7057;49.984;8.404;2023-07-13T02:48:34;17.70;99.90
13970;DHT22;7057;49.984;8.404;2023-07-13T02:51:02;17.60;99.90
13970;DHT22;7057;49.984;8.404;2023-07-13T02:53:29;17.60;99.90
13970;DHT22;7057;49.984;8.404;2023-07-13T02:55:56;17.50;99.90
13970;DHT22;7057;49.984;8.404;2023-07-13T02:58:24;17.40;99.90
13970;DHT22;7057;49.984;8.404;2023-07-13T03:00:51;17.40;99.90
13970;DHT22;7057;49.984;8.404;2023-07-13T03:03:18;17.30;99.90
13970;DHT22;7057;49.984;8.404;2023-07-13T03:05:47;17.20;99.90
13970;DHT22;7057;49.984;8.404;2023-07-13T03:08:16;17.20;99.90
13970;DHT22;7057;49.984;8.404;2023-07-13T03:10:43;17.10;99.90
13970;DHT22;7057;49.984;8.404;2023-07-13T03:13:11;17.00;99.90
13970;DHT22;7057;49.984;8.404;2023-07-13T03:15:38;17.00;99.90
13970;DHT22;7057;49.984;8.404;2023-07-13T03:18:05;16.90;99.90
13970;DHT22;7057;49.984;8.404;2023-07-13T03:20:33;16.80;99.90
13970;DHT22;7057;49.984;8.404;2023-07-13T03:23:02;16.80;99.90
13970;DHT22;7057;49.984;8.404;2023-07-13T03:25:29;16.70;99.90
13970;DHT22;7057;49.984;8.404;2023-07-13T03:27:57;16.60;99.90
13970;DHT22;7057;49.984;8.404;2023-07-13T03:30:24;16.50;99.90
13970;DHT22;7057;49.984;8.404;2023-07-13T03:32:51;16.50;99.90
13970;DHT22;7057;49.984;8.404;2023-07-13T03:35:18;16.50;99.90
13970;DHT22;7057;49.984;8.404;2023-07-13T03:37:45;16.40;99.90
13970;DHT22;7057;49.984;8.404;2023-07-13T03:40:14;16.30;99.90
13970;DHT22;7057;49.984;8.404;2023-07-13T03:42:41;16.30;99.90
13970;DHT22;7057;49.984;8.404;2023-07-13T03:45:08;16.30;99.90
13970;DHT22;7057;49.984;8.404;2023-07-13T03:47:36;16.20;99.90
13970;DHT22;7057;49.984;8.404;2023-07-13T03:50:04;16.20;99.90
13970;DHT22;7057;49.984;8.404;2023-07-13T03:52:31;16.20;99.90
13970;DHT22;7057;49.984;8.404;2023-07-13T03:54:58;16.20;99.90
13970;DHT22;7057;49.984;8.404;2023-07-13T03:57:27;16.20;99.90
13970;DHT22;7057;49.984;8.404;2023-07-13T03:59:54;16.20;99.90
13970;DHT22;7057;49.984;8.404;2023-07-13T04:02:21;16.20;99.90
13970;DHT22;7057;49.984;8.404;2023-07-13T04:04:48;16.20;99.90
13970;DHT22;7057;49.984;8.404;2023-07-13T04:07:15;16.20;99.90
13970;DHT22;7057;49.984;8.404;2023-07-13T04:09:42;16.20;99.90
13970;DHT22;7057;49.984;8.404;2023-07-13T04:12:10;16.20;99.90
13970;DHT22;7057;49.984;8.404;2023-07-13T04:14:38;16.20;99.90
13970;DHT22;7057;49.984;8.404;2023-07-13T04:17:05;16.20;99.90
13970;DHT22;7057;49.984;8.404;2023-07-13T04:19:33;16.30;99.90
13970;DHT22;7057;49.984;8.404;2023-07-13T04:22:00;16.40;99.90
13970;DHT22;7057;49.984;8.404;2023-07-13T04:24:27;16.40;99.90
13970;DHT22;7057;49.984;8.404;2023-07-13T04:26:54;16.40;99.90
13970;DHT22;7057;49.984;8.404;2023-07-13T04:29:25;16.60;99.90
13970;DHT22;7057;49.984;8.404;2023-07-13T04:31:53;16.70;99.90
13970;DHT22;7057;49.984;8.404;2023-07-13T04:34:20;16.80;99.90
13970;DHT22;7057;49.984;8.404;2023-07-13T04:36:50;16.90;99.90
13970;DHT22;7057;49.984;8.404;2023-07-13T04:39:18;17.00;99.90
13970;DHT22;7057;49.984;8.404;2023-07-13T04:41:46;17.10;99.90
13970;DHT22;7057;49.984;8.404;2023-07-13T04:44:13;17.30;99.90
13970;DHT22;7057;49.984;8.404;2023-07-13T04:46:40;17.40;99.90
13970;DHT22;7057;49.984;8.404;2023-07-13T04:49:09;17.50;99.90
13970;DHT22;7057;49.984;8.404;2023-07-13T04:51:36;17.60;99.90
13970;DHT22;7057;49.984;8.404;2023-07-13T04:54:04;17.60;99.90
13970;DHT22;7057;49.984;8.404;2023-07-13T04:56:33;17.80;99.90
13970;DHT22;7057;49.984;8.404;2023-07-13T04:59:00;17.80;99.90
13970;DHT22;7057;49.984;8.404;2023-07-13T05:01:28;17.90;99.90
13970;DHT22;7057;49.984;8.404;2023-07-13T05:03:55;18.00;99.90
13970;DHT22;7057;49.984;8.404;2023-07-13T05:06:25;18.10;99.90
13970;DHT22;7057;49.984;8.404;2023-07-13T05:08:53;18.10;99.90
13970;DHT22;7057;49.984;8.404;2023-07-13T05:11:20;18.20;99.90
13970;DHT22;7057;49.984;8.404;2023-07-13T05:13:47;18.30;99.90
13970;DHT22;7057;49.984;8.404;2023-07-13T05:16:14;18.40;99.90
13970;DHT22;7057;49.984;8.404;2023-07-13T05:18:42;18.50;99.90
13970;DHT22;7057;49.984;8.404;2023-07-13T05:21:11;18.50;99.90
13970;DHT22;7057;49.984;8.404;2023-07-13T05:23:39;18.60;99.90
13970;DHT22;7057;49.984;8.404;2023-07-13T05:26:07;18.70;99.90
13970;DHT22;7057;49.984;8.404;2023-07-13T05:28:34;18.70;99.90
13970;DHT22;7057;49.984;8.404;2023-07-13T05:31:02;18.90;99.90
13970;DHT22;7057;49.984;8.404;2023-07-13T05:33:29;19.00;99.90
13970;DHT22;7057;49.984;8.404;2023-07-13T05:35:56;19.20;99.90
13970;DHT22;7057;49.984;8.404;2023-07-13T05:38:24;19.30;99.90
13970;DHT22;7057;49.984;8.404;2023-07-13T05:40:54;19.40;99.90
13970;DHT22;7057;49.984;8.404;2023-07-13T05:43:21;19.50;99.90
13970;DHT22;7057;49.984;8.404;2023-07-13T05:45:50;19.60;99.90
13970;DHT22;7057;49.984;8.404;2023-07-13T05:48:18;19.70;99.90
13970;DHT22;7057;49.984;8.404;2023-07-13T05:50:45;19.80;99.90
13970;DHT22;7057;49.984;8.404;2023-07-13T05:53:12;19.90;99.90
13970;DHT22;7057;49.984;8.404;2023-07-13T05:55:41;20.00;99.90
13970;DHT22;7057;49.984;8.404;2023-07-13T05:58:11;20.10;99.90
13970;DHT22;7057;49.984;8.404;2023-07-13T06:00:39;20.20;99.90
13970;DHT22;7057;49.984;8.404;2023-07-13T06:03:06;20.30;99.90
13970;DHT22;7057;49.984;8.404;2023-07-13T06:05:34;20.40;99.90
13970;DHT22;7057;49.984;8.404;2023-07-13T06:08:02;20.50;99.90
13970;DHT22;7057;49.984;8.404;2023-07-13T06:10:32;20.60;99.90
13970;DHT22;7057;49.984;8.404;2023-07-13T06:12:59;20.70;99.90
13970;DHT22;7057;49.984;8.404;2023-07-13T06:15:28;20.70;99.90
13970;DHT22;7057;49.984;8.404;2023-07-13T06:17:55;20.80;99.90
13970;DHT22;7057;49.984;8.404;2023-07-13T06:20:22;20.80;99.90
13970;DHT22;7057;49.984;8.404;2023-07-13T06:22:49;20.90;99.90
13970;DHT22;7057;49.984;8.404;2023-07-13T06:25:17;21.00;99.90
13970;DHT22;7057;49.984;8.404;2023-07-13T06:27:44;21.10;99.90
13970;DHT22;7057;49.984;8.404;2023-07-13T06:30:12;21.10;99.90
13970;DHT22;7057;49.984;8.404;2023-07-13T06:32:40;21.20;99.90
13970;DHT22;7057;49.984;8.404;2023-07-13T06:35:08;21.20;99.90
13970;DHT22;7057;49.984;8.404;2023-07-13T06:37:38;21.40;99.90
13970;DHT22;7057;49.984;8.404;2023-07-13T06:40:06;21.40;99.90
13970;DHT22;7057;49.984;8.404;2023-07-13T06:42:34;21.40;99.90
13970;DHT22;7057;49.984;8.404;2023-07-13T06:45:01;21.40;99.90
13970;DHT22;7057;49.984;8.404;2023-07-13T06:47:28;21.50;99.90
13970;DHT22;7057;49.984;8.404;2023-07-13T06:49:57;21.60;99.90
13970;DHT22;7057;49.984;8.404;2023-07-13T06:52:24;21.70;99.90
13970;DHT22;7057;49.984;8.404;2023-07-13T06:54:52;21.80;99.90
13970;DHT22;7057;49.984;8.404;2023-07-13T06:57:19;21.90;99.90
13970;DHT22;7057;49.984;8.404;2023-07-13T06:59:46;21.90;99.90
13970;DHT22;7057;49.984;8.404;2023-07-13T07:02:13;22.00;99.90
13970;DHT22;7057;49.984;8.404;2023-07-13T07:04:40;22.00;99.90
13970;DHT22;7057;49.984;8.404;2023-07-13T07:07:09;22.00;99.90
13970;DHT22;7057;49.984;8.404;2023-07-13T07:09:36;22.10;99.90
13970;DHT22;7057;49.984;8.404;2023-07-13T07:12:04;22.10;99.90
13970;DHT22;7057;49.984;8.404;2023-07-13T07:14:31;22.20;99.90
13970;DHT22;7057;49.984;8.404;2023-07-13T07:17:00;22.20;99.90
13970;DHT22;7057;49.984;8.404;2023-07-13T07:19:29;22.30;99.90
13970;DHT22;7057;49.984;8.404;2023-07-13T07:21:56;22.40;99.90
13970;DHT22;7057;49.984;8.404;2023-07-13T07:24:24;22.60;99.90
13970;DHT22;7057;49.984;8.404;2023-07-13T07:26:52;22.70;99.90
13970;DHT22;7057;49.984;8.404;2023-07-13T07:29:19;22.70;99.90
13970;DHT22;7057;49.984;8.404;2023-07-13T07:31:46;22.70;99.90
13970;DHT22;7057;49.984;8.404;2023-07-13T07:34:14;22.60;99.90
13970;DHT22;7057;49.984;8.404;2023-07-13T07:36:41;22.60;99.90
13970;DHT22;7057;49.984;8.404;2023-07-13T07:39:08;22.70;99.90
13970;DHT22;7057;49.984;8.404;2023-07-13T07:41:36;22.90;99.90
13970;DHT22;7057;49.984;8.404;2023-07-13T07:44:04;22.90;99.90
13970;DHT22;7057;49.984;8.404;2023-07-13T07:46:33;23.00;99.90
13970;DHT22;7057;49.984;8.404;2023-07-13T07:49:00;23.20;99.90
13970;DHT22;7057;49.984;8.404;2023-07-13T07:51:27;23.30;99.90
13970;DHT22;7057;49.984;8.404;2023-07-13T07:53:54;23.50;99.90
13970;DHT22;7057;49.984;8.404;2023-07-13T07:56:21;23.60;99.90
13970;DHT22;7057;49.984;8.404;2023-07-13T07:58:50;23.60;99.90
13970;DHT22;7057;49.984;8.404;2023-07-13T08:01:17;23.60;99.90
13970;DHT22;7057;49.984;8.404;2023-07-13T08:03:44;23.60;99.90
13970;DHT22;7057;49.984;8.404;2023-07-13T08:06:11;23.70;99.90
13970;DHT22;7057;49.984;8.404;2023-07-13T08:08:39;23.80;99.90
13970;DHT22;7057;49.984;8.404;2023-07-13T08:11:07;24.10;99.90
13970;DHT22;7057;49.984;8.404;2023-07-13T08:13:35;24.30;99.90
13970;DHT22;7057;49.984;8.404;2023-07-13T08:16:04;24.40;99.90
13970;DHT22;7057;49.984;8.404;2023-07-13T08:18:32;24.50;99.90
13970;DHT22;7057;49.984;8.404;2023-07-13T08:21:03;24.60;99.90
13970;DHT22;7057;49.984;8.404;2023-07-13T08:23:30;24.70;99.90
13970;DHT22;7057;49.984;8.404;2023-07-13T08:25:58;24.80;99.90
13970;DHT22;7057;49.984;8.404;2023-07-13T08:28:27;24.80;99.90
13970;DHT22;7057;49.984;8.404;2023-07-13T08:30:55;24.60;99.90
13970;DHT22;7057;49.984;8.404;2023-07-13T08:33:28;24.50;99.90
13970;DHT22;7057;49.984;8.404;2023-07-13T08:35:55;24.50;99.90
13970;DHT22;7057;49.984;8.404;2023-07-13T08:38:22;24.50;99.90
13970;DHT22;7057;49.984;8.404;2023-07-13T08:40:52;24.60;99.90
13970;DHT22;7057;49.984;8.404;2023-07-13T08:43:25;24.60;99.90
13970;DHT22;7057;49.984;8.404;2023-07-13T08:45:56;24.80;99.90
13970;DHT22;7057;49.984;8.404;2023-07-13T08:48:28;24.90;99.90
13970;DHT22;7057;49.984;8.404;2023-07-13T08:51:00;25.00;99.90
13970;DHT22;7057;49.984;8.404;2023-07-13T08:53:34;25.10;99.90
13970;DHT22;7057;49.984;8.404;2023-07-13T08:56:07;25.00;99.90
13970;DHT22;7057;49.984;8.404;2023-07-13T08:58:36;24.80;99.90
13970;DHT22;7057;49.984;8.404;2023-07-13T09:01:17;24.80;99.90
13970;DHT22;7057;49.984;8.404;2023-07-13T09:03:54;24.90;99.90
13970;DHT22;7057;49.984;8.404;2023-07-13T09:06:31;24.80;99.90
13970;DHT22;7057;49.984;8.404;2023-07-13T09:09:03;24.80;99.30
13970;DHT22;7057;49.984;8.404;2023-07-13T09:11:44;24.80;98.10
13970;DHT22;7057;49.984;8.404;2023-07-13T09:14:31;24.90;98.40
13970;DHT22;7057;49.984;8.404;2023-07-13T09:17:02;25.00;98.70
13970;DHT22;7057;49.984;8.404;2023-07-13T09:19:33;25.20;99.10
13970;DHT22;7057;49.984;8.404;2023-07-13T09:22:03;25.10;98.90
13970;DHT22;7057;49.984;8.404;2023-07-13T09:24:37;25.30;98.30
13970;DHT22;7057;49.984;8.404;2023-07-13T09:27:21;25.40;98.00
13970;DHT22;7057;49.984;8.404;2023-07-13T09:29:50;25.40;97.40
13970;DHT22;7057;49.984;8.404;2023-07-13T09:32:23;25.30;99.20
13970;DHT22;7057;49.984;8.404;2023-07-13T09:34:53;25.40;99.80
13970;DHT22;7057;49.984;8.404;2023-07-13T09:37:26;25.50;97.80
13970;DHT22;7057;49.984;8.404;2023-07-13T09:39:56;25.50;98.00
13970;DHT22;7057;49.984;8.404;2023-07-13T09:42:25;25.50;96.60
13970;DHT22;7057;49.984;8.404;2023-07-13T09:44:55;25.40;96.90
13970;DHT22;7057;49.984;8.404;2023-07-13T09:47:25;25.50;96.90
13970;DHT22;7057;49.984;8.404;2023-07-13T09:49:59;25.50;96.80
13970;DHT22;7057;49.984;8.404;2023-07-13T09:52:27;25.50;96.90
13970;DHT22;7057;49.984;8.404;2023-07-13T09:54:57;25.60;97.70
13970;DHT22;7057;49.984;8.404;2023-07-13T09:57:26;25.80;96.20
13970;DHT22;7057;49.984;8.404;2023-07-13T09:59:55;25.90;95.90
13970;DHT22;7057;49.984;8.404;2023-07-13T10:02:27;25.90;96.30
13970;DHT22;7057;49.984;8.404;2023-07-13T10:05:00;25.90;96.60
13970;DHT22;7057;49.984;8.404;2023-07-13T10:07:30;26.00;97.60
13970;DHT22;7057;49.984;8.404;2023-07-13T10:09:59;26.00;95.60
13970;DHT22;7057;49.984;8.404;2023-07-13T10:12:28;26.00;96.00
13970;DHT22;7057;49.984;8.404;2023-07-13T10:14:58;25.90;96.20
13970;DHT22;7057;49.984;8.404;2023-07-13T10:17:29;25.90;96.10
13970;DHT22;7057;49.984;8.404;2023-07-13T10:20:01;25.80;96.30
13970;DHT22;7057;49.984;8.404;2023-07-13T10:22:37;25.90;96.50
13970;DHT22;7057;49.984;8.404;2023-07-13T10:25:14;25.80;97.50
13970;DHT22;7057;49.984;8.404;2023-07-13T10:27:43;25.80;96.70
13970;DHT22;7057;49.984;8.404;2023-07-13T10:30:14;25.90;97.20
13970;DHT22;7057;49.984;8.404;2023-07-13T10:32:44;25.90;96.80
13970;DHT22;7057;49.984;8.404;2023-07-13T10:35:15;25.90;96.10
13970;DHT22;7057;49.984;8.404;2023-07-13T10:37:48;25.80;96.00
13970;DHT22;7057;49.984;8.404;2023-07-13T10:40:19;25.70;95.60
13970;DHT22;7057;49.984;8.404;2023-07-13T10:42:50;25.60;96.30
13970;DHT22;7057;49.984;8.404;2023-07-13T10:45:21;25.50;96.10
13970;DHT22;7057;49.984;8.404;2023-07-13T10:47:51;25.30;96.40
13970;DHT22;7057;49.984;8.404;2023-07-13T10:50:23;25.10;96.40
13970;DHT22;7057;49.984;8.404;2023-07-13T10:52:52;25.10;96.20
13970;DHT22;7057;49.984;8.404;2023-07-13T10:55:38;25.30;97.20
13970;DHT22;7057;49.984;8.404;2023-07-13T10:58:15;25.60;96.10
13970;DHT22;7057;49.984;8.404;2023-07-13T11:00:51;25.80;96.20
13970;DHT22;7057;49.984;8.404;2023-07-13T11:03:22;26.00;95.70
13970;DHT22;7057;49.984;8.404;2023-07-13T11:06:06;26.00;94.80
13970;DHT22;7057;49.984;8.404;2023-07-13T11:08:37;25.90;93.70
13970;DHT22;7057;49.984;8.404;2023-07-13T11:11:36;25.80;94.50
13970;DHT22;7057;49.984;8.404;2023-07-13T11:14:05;25.70;94.80
13970;DHT22;7057;49.984;8.404;2023-07-13T11:16:52;25.60;94.80
13970;DHT22;7057;49.984;8.404;2023-07-13T11:22:13;25.90;95.60
13970;DHT22;7057;49.984;8.404;2023-07-13T11:24:49;25.90;94.90
13970;DHT22;7057;49.984;8.404;2023-07-13T11:27:38;25.80;94.90
13970;DHT22;7057;49.984;8.404;2023-07-13T11:30:21;25.80;94.60
13970;DHT22;7057;49.984;8.404;2023-07-13T11:32:51;25.60;95.10
13970;DHT22;7057;49.984;8.404;2023-07-13T11:35:23;25.80;95.10
13970;DHT22;7057;49.984;8.404;2023-07-13T11:37:53;26.00;94.70
13970;DHT22;7057;49.984;8.404;2023-07-13T11:40:23;26.30;95.00
13970;DHT22;7057;49.984;8.404;2023-07-13T11:43:00;26.50;95.00
13970;DHT22;7057;49.984;8.404;2023-07-13T11:45:28;26.70;94.90
13970;DHT22;7057;49.984;8.404;2023-07-13T11:47:55;26.80;93.10
13970;DHT22;7057;49.984;8.404;2023-07-13T11:50:26;27.00;93.30
13970;DHT22;7057;49.984;8.404;2023-07-13T11:52:54;27.10;94.10
13970;DHT22;7057;49.984;8.404;2023-07-13T11:55:23;27.10;92.60
13970;DHT22;7057;49.984;8.404;2023-07-13T11:57:54;26.80;92.90
13970;DHT22;7057;49.984;8.404;2023-07-13T12:00:28;26.80;93.10
13970;DHT22;7057;49.984;8.404;2023-07-13T12:02:58;27.00;93.30
13970;DHT22;7057;49.984;8.404;2023-07-13T12:05:26;27.20;93.40
13970;DHT22;7057;49.984;8.404;2023-07-13T12:07:55;27.30;93.40
13970;DHT22;7057;49.984;8.404;2023-07-13T12:10:24;27.40;92.10
13970;DHT22;7057;49.984;8.404;2023-07-13T12:12:53;27.20;92.30
13970;DHT22;7057;49.984;8.404;2023-07-13T12:15:23;26.90;92.50
13970;DHT22;7057;49.984;8.404;2023-07-13T12:17:52;26.70;92.60
13970;DHT22;7057;49.984;8.404;2023-07-13T12:20:26;26.70;92.70
13970;DHT22;7057;49.984;8.404;2023-07-13T12:22:53;26.70;92.40
13970;DHT22;7057;49.984;8.404;2023-07-13T12:25:22;26.70;92.70
13970;DHT22;7057;49.984;8.404;2023-07-13T12:27:51;26.80;92.60
13970;DHT22;7057;49.984;8.404;2023-07-13T12:30:26;26.70;92.10
13970;DHT22;7057;49.984;8.404;2023-07-13T12:32:59;26.70;92.40
13970;DHT22;7057;49.984;8.404;2023-07-13T12:35:28;26.60;92.40
13970;DHT22;7057;49.984;8.404;2023-07-13T12:37:57;26.60;93.10
13970;DHT22;7057;49.984;8.404;2023-07-13T12:40:31;26.70;93.20
13970;DHT22;7057;49.984;8.404;2023-07-13T12:43:01;26.70;93.00
13970;DHT22;7057;49.984;8.404;2023-07-13T12:45:30;26.70;92.70
13970;DHT22;7057;49.984;8.404;2023-07-13T12:48:05;26.50;92.70
13970;DHT22;7057;49.984;8.404;2023-07-13T12:50:39;26.40;93.10
13970;DHT22;7057;49.984;8.404;2023-07-13T12:53:13;26.50;93.10
13970;DHT22;7057;49.984;8.404;2023-07-13T12:55:42;26.70;93.10
13970;DHT22;7057;49.984;8.404;2023-07-13T12:58:16;26.80;92.40
13970;DHT22;7057;49.984;8.404;2023-07-13T13:00:48;26.90;92.10
13970;DHT22;7057;49.984;8.404;2023-07-13T13:03:24;26.80;92.30
13970;DHT22;7057;49.984;8.404;2023-07-13T13:06:00;26.90;92.40
13970;DHT22;7057;49.984;8.404;2023-07-13T13:08:29;27.10;93.00
13970;DHT22;7057;49.984;8.404;2023-07-13T13:10:57;27.20;92.50
13970;DHT22;7057;49.984;8.404;2023-07-13T13:13:24;27.20;92.10
13970;DHT22;7057;49.984;8.404;2023-07-13T13:15:51;27.10;92.60
13970;DHT22;7057;49.984;8.404;2023-07-13T13:18:22;27.10;92.40
13970;DHT22;7057;49.984;8.404;2023-07-13T13:20:50;27.20;92.40
13970;DHT22;7057;49.984;8.404;2023-07-13T13:23:19;27.30;92.60
13970;DHT22;7057;49.984;8.404;2023-07-13T13:25:50;27.20;92.10
13970;DHT22;7057;49.984;8.404;2023-07-13T13:28:19;27.10;92.30
13970;DHT22;7057;49.984;8.404;2023-07-13T13:30:48;27.00;92.40
13970;DHT22;7057;49.984;8.404;2023-07-13T13:33:17;27.00;92.00
13970;DHT22;7057;49.984;8.404;2023-07-13T13:35:46;27.00;91.70
13970;DHT22;7057;49.984;8.404;2023-07-13T13:38:14;27.10;92.50
13970;DHT22;7057;49.984;8.404;2023-07-13T13:40:43;27.00;91.80
13970;DHT22;7057;49.984;8.404;2023-07-13T13:43:15;27.10;91.60
13970;DHT22;7057;49.984;8.404;2023-07-13T13:45:44;27.10;91.50
13970;DHT22;7057;49.984;8.404;2023-07-13T13:48:17;27.00;91.60
13970;DHT22;7057;49.984;8.404;2023-07-13T13:50:47;27.00;92.10
13970;DHT22;7057;49.984;8.404;2023-07-13T13:53:14;27.00;92.50
13970;DHT22;7057;49.984;8.404;2023-07-13T13:55:42;27.00;92.10
13970;DHT22;7057;49.984;8.404;2023-07-13T13:58:09;27.00;91.40
13970;DHT22;7057;49.984;8.404;2023-07-13T14:00:37;27.00;91.70
13970;DHT22;7057;49.984;8.404;2023-07-13T14:03:05;26.90;91.90
13970;DHT22;7057;49.984;8.404;2023-07-13T14:05:33;27.00;91.90
13970;DHT22;7057;49.984;8.404;2023-07-13T14:08:01;27.20;91.70
13970;DHT22;7057;49.984;8.404;2023-07-13T14:10:29;27.40;92.60
13970;DHT22;7057;49.984;8.404;2023-07-13T14:12:57;27.70;91.90
13970;DHT22;7057;49.984;8.404;2023-07-13T14:15:26;27.90;91.70
13970;DHT22;7057;49.984;8.404;2023-07-13T14:17:54;28.00;91.10
13970;DHT22;7057;49.984;8.404;2023-07-13T14:20:24;28.00;91.90
13970;DHT22;7057;49.984;8.404;2023-07-13T14:22:52;27.80;92.00
13970;DHT22;7057;49.984;8.404;2023-07-13T14:25:22;27.80;91.30
13970;DHT22;7057;49.984;8.404;2023-07-13T14:27:53;27.80;91.30
13970;DHT22;7057;49.984;8.404;2023-07-13T14:30:22;27.60;90.70
13970;DHT22;7057;49.984;8.404;2023-07-13T14:32:49;27.40;91.30
13970;DHT22;7057;49.984;8.404;2023-07-13T14:35:20;27.10;91.20
13970;DHT22;7057;49.984;8.404;2023-07-13T14:37:49;26.90;92.00
13970;DHT22;7057;49.984;8.404;2023-07-13T14:40:19;26.50;91.90
13970;DHT22;7057;49.984;8.404;2023-07-13T14:42:49;26.20;92.10
13970;DHT22;7057;49.984;8.404;2023-07-13T14:45:19;26.10;92.60
13970;DHT22;7057;49.984;8.404;2023-07-13T14:47:47;26.00;92.50
13970;DHT22;7057;49.984;8.404;2023-07-13T14:50:17;25.90;92.90
13970;DHT22;7057;49.984;8.404;2023-07-13T14:52:46;25.90;92.60
13970;DHT22;7057;49.984;8.404;2023-07-13T14:55:16;25.80;92.70
13970;DHT22;7057;49.984;8.404;2023-07-13T14:57:44;25.80;92.70
13970;DHT22;7057;49.984;8.404;2023-07-13T15:00:18;25.90;92.70
13970;DHT22;7057;49.984;8.404;2023-07-13T15:02:49;26.00;92.90
13970;DHT22;7057;49.984;8.404;2023-07-13T15:05:20;26.20;92.50
13970;DHT22;7057;49.984;8.404;2023-07-13T15:07:47;26.30;92.10
13970;DHT22;7057;49.984;8.404;2023-07-13T15:10:17;26.40;92.30
13970;DHT22;7057;49.984;8.404;2023-07-13T15:12:45;26.50;92.10
13970;DHT22;7057;49.984;8.404;2023-07-13T15:15:13;26.60;91.50
13970;DHT22;7057;49.984;8.404;2023-07-13T15:17:43;26.60;91.50
13970;DHT22;7057;49.984;8.404;2023-07-13T15:20:18;26.60;91.50
13970;DHT22;7057;49.984;8.404;2023-07-13T15:22:46;26.50;91.70
13970;DHT22;7057;49.984;8.404;2023-07-13T15:25:17;26.50;91.50
13970;DHT22;7057;49.984;8.404;2023-07-13T15:27:44;26.50;91.80
13970;DHT22;7057;49.984;8.404;2023-07-13T15:30:12;26.50;91.80
13970;DHT22;7057;49.984;8.404;2023-07-13T15:32:42;26.50;91.60
13970;DHT22;7057;49.984;8.404;2023-07-13T15:35:14;26.60;91.70
13970;DHT22;7057;49.984;8.404;2023-07-13T15:37:42;26.60;92.10
13970;DHT22;7057;49.984;8.404;2023-07-13T15:40:11;26.60;91.60
13970;DHT22;7057;49.984;8.404;2023-07-13T15:42:40;26.70;91.90
13970;DHT22;7057;49.984;8.404;2023-07-13T15:45:16;26.80;91.60
13970;DHT22;7057;49.984;8.404;2023-07-13T15:47:46;27.10;91.50
13970;DHT22;7057;49.984;8.404;2023-07-13T15:50:14;27.30;91.50
13970;DHT22;7057;49.984;8.404;2023-07-13T15:52:43;27.20;91.00
13970;DHT22;7057;49.984;8.404;2023-07-13T15:55:12;27.40;91.20
13970;DHT22;7057;49.984;8.404;2023-07-13T15:57:41;27.50;91.00
13970;DHT22;7057;49.984;8.404;2023-07-13T16:00:20;27.50;91.00